sensor_id;sensor_type;location;lat;lon;timestamp;pressure;altitude;pressure_sealevel;temperature;humidity
68456;BME280;55437;55.046;38.838;2023-03-25T00:02:21;99014.47;;;5.84;75.23
68456;BME280;55437;55.046;38.838;2023-03-25T00:04:51;99009.34;;;5.85;75.07
68456;BME280;55437;55.046;38.838;2023-03-25T00:07:20;98994.00;;;5.88;75.28
68456;BME280;55437;55.046;38.838;2023-03-25T00:09:46;98992.31;;;5.87;75.48
68456;BME280;55437;55.046;38.838;2023-03-25T00:12:14;98998.28;;;5.86;75.66
68456;BME280;55437;55.046;38.838;2023-03-25T00:14:40;99005.06;;;5.86;75.69
68456;BME280;55437;55.046;38.838;2023-03-25T00:17:07;98998.31;;;5.85;75.70
68456;BME280;55437;55.046;38.838;2023-03-25T00:19:34;98992.38;;;5.84;75.89
68456;BME280;55437;55.046;38.838;2023-03-25T00:22:01;98978.84;;;5.82;75.80
68456;BME280;55437;55.046;38.838;2023-03-25T00:24:28;98990.78;;;5.80;76.16
68456;BME280;55437;55.046;38.838;2023-03-25T00:26:53;98990.75;;;5.82;76.09
68456;BME280;55437;55.046;38.838;2023-03-25T00:29:19;98989.97;;;5.79;75.90
68456;BME280;55437;55.046;38.838;2023-03-25T00:31:45;98990.00;;;5.78;75.96
68456;BME280;55437;55.046;38.838;2023-03-25T00:34:11;98979.84;;;5.76;76.19
68456;BME280;55437;55.046;38.838;2023-03-25T00:36:40;98978.97;;;5.77;76.06
68456;BME280;55437;55.046;38.838;2023-03-25T00:39:08;98977.31;;;5.76;76.26
68456;BME280;55437;55.046;38.838;2023-03-25T00:41:34;98968.03;;;5.74;76.22
68456;BME280;55437;55.046;38.838;2023-03-25T00:44:05;98963.78;;;5.74;76.45
68456;BME280;55437;55.046;38.838;2023-03-25T00:46:31;98956.97;;;5.75;76.34
68456;BME280;55437;55.046;38.838;2023-03-25T00:48:58;98967.13;;;5.76;76.40
68456;BME280;55437;55.046;38.838;2023-03-25T00:51:26;98971.34;;;5.77;76.29
68456;BME280;55437;55.046;38.838;2023-03-25T00:53:55;98962.81;;;5.78;75.93
68456;BME280;55437;55.046;38.838;2023-03-25T00:56:24;98973.00;;;5.78;75.87
68456;BME280;55437;55.046;38.838;2023-03-25T00:58:52;98976.31;;;5.80;76.14
68456;BME280;55437;55.046;38.838;2023-03-25T01:01:21;98980.53;;;5.82;76.01
68456;BME280;55437;55.046;38.838;2023-03-25T01:03:55;98982.25;;;5.81;76.09
68456;BME280;55437;55.046;38.838;2023-03-25T01:06:31;98973.75;;;5.82;76.05
68456;BME280;55437;55.046;38.838;2023-03-25T01:08:58;98974.69;;;5.79;76.11
68456;BME280;55437;55.046;38.838;2023-03-25T01:11:27;98967.84;;;5.80;76.12
68456;BME280;55437;55.046;38.838;2023-03-25T01:13:55;98972.94;;;5.80;76.16
68456;BME280;55437;55.046;38.838;2023-03-25T01:16:22;98978.00;;;5.82;76.18
68456;BME280;55437;55.046;38.838;2023-03-25T01:18:50;98975.41;;;5.83;75.90
68456;BME280;55437;55.046;38.838;2023-03-25T01:21:17;98964.38;;;5.83;75.99
68456;BME280;55437;55.046;38.838;2023-03-25T01:23:43;98958.47;;;5.82;75.89
68456;BME280;55437;55.046;38.838;2023-03-25T01:26:11;98960.34;;;5.75;75.91
68456;BME280;55437;55.046;38.838;2023-03-25T01:28:40;98956.16;;;5.73;75.82
68456;BME280;55437;55.046;38.838;2023-03-25T01:31:08;98950.44;;;5.65;76.16
68456;BME280;55437;55.046;38.838;2023-03-25T01:33:35;98948.81;;;5.62;76.21
68456;BME280;55437;55.046;38.838;2023-03-25T01:36:01;98942.88;;;5.62;76.35
68456;BME280;55437;55.046;38.838;2023-03-25T01:38:27;98938.63;;;5.62;76.32
68456;BME280;55437;55.046;38.838;2023-03-25T01:40:55;98941.22;;;5.61;76.16
68456;BME280;55437;55.046;38.838;2023-03-25T01:43:23;98932.84;;;5.56;76.29
68456;BME280;55437;55.046;38.838;2023-03-25T01:45:49;98940.59;;;5.53;76.42
68456;BME280;55437;55.046;38.838;2023-03-25T01:48:26;98938.78;;;5.56;76.44
68456;BME280;55437;55.046;38.838;2023-03-25T01:51:24;98926.84;;;5.58;76.18
68456;BME280;55437;55.046;38.838;2023-03-25T01:53:52;98925.06;;;5.62;75.94
68456;BME280;55437;55.046;38.838;2023-03-25T01:56:45;98914.75;;;5.66;76.02
68456;BME280;55437;55.046;38.838;2023-03-25T01:59:23;98917.31;;;5.66;75.94
68456;BME280;55437;55.046;38.838;2023-03-25T02:01:50;98909.75;;;5.63;76.15
68456;BME280;55437;55.046;38.838;2023-03-25T02:04:34;98902.13;;;5.62;76.17
68456;BME280;55437;55.046;38.838;2023-03-25T02:07:07;98895.59;;;5.53;76.15
68456;BME280;55437;55.046;38.838;2023-03-25T02:09:35;98897.25;;;5.54;76.07
68456;BME280;55437;55.046;38.838;2023-03-25T02:12:06;98897.41;;;5.48;76.30
68456;BME280;55437;55.046;38.838;2023-03-25T02:14:33;98902.50;;;5.48;76.27
68456;BME280;55437;55.046;38.838;2023-03-25T02:20:29;98899.66;;;5.59;76.03
68456;BME280;55437;55.046;38.838;2023-03-25T02:23:27;98897.91;;;5.61;75.90
68456;BME280;55437;55.046;38.838;2023-03-25T02:26:20;98886.06;;;5.60;76.05
68456;BME280;55437;55.046;38.838;2023-03-25T02:29:10;98890.31;;;5.59;75.88
68456;BME280;55437;55.046;38.838;2023-03-25T02:32:19;98896.31;;;5.57;75.78
68456;BME280;55437;55.046;38.838;2023-03-25T02:35:30;98886.31;;;5.51;75.97
68456;BME280;55437;55.046;38.838;2023-03-25T02:38:02;98877.88;;;5.49;76.14
68456;BME280;55437;55.046;38.838;2023-03-25T02:40:40;98879.50;;;5.51;75.97
68456;BME280;55437;55.046;38.838;2023-03-25T02:43:25;98867.72;;;5.47;76.04
68456;BME280;55437;55.046;38.838;2023-03-25T02:45:59;98865.25;;;5.44;76.15
68456;BME280;55437;55.046;38.838;2023-03-25T02:48:35;98875.56;;;5.41;76.32
68456;BME280;55437;55.046;38.838;2023-03-25T02:51:08;98872.91;;;5.44;76.44
68456;BME280;55437;55.046;38.838;2023-03-25T02:53:40;98870.31;;;5.46;76.29
68456;BME280;55437;55.046;38.838;2023-03-25T02:56:11;98872.78;;;5.49;76.23
68456;BME280;55437;55.046;38.838;2023-03-25T02:58:41;98866.75;;;5.53;76.15
68456;BME280;55437;55.046;38.838;2023-03-25T03:01:09;98856.56;;;5.53;76.21
68456;BME280;55437;55.046;38.838;2023-03-25T03:03:39;98858.97;;;5.57;75.98
68456;BME280;55437;55.046;38.838;2023-03-25T03:06:07;98856.38;;;5.59;76.02
68456;BME280;55437;55.046;38.838;2023-03-25T03:11:24;98843.66;;;5.59;76.00
68456;BME280;55437;55.046;38.838;2023-03-25T03:17:13;98837.56;;;5.64;75.81
68456;BME280;55437;55.046;38.838;2023-03-25T03:25:44;98822.34;;;5.92;75.47
68456;BME280;55437;55.046;38.838;2023-03-25T03:28:23;98813.50;;;6.04;75.16
68456;BME280;55437;55.046;38.838;2023-03-25T03:38:46;98795.53;;;6.08;75.10
68456;BME280;55437;55.046;38.838;2023-03-25T03:41:19;98792.97;;;6.08;75.04
68456;BME280;55437;55.046;38.838;2023-03-25T03:46:21;98791.13;;;6.13;75.09
68456;BME280;55437;55.046;38.838;2023-03-25T03:48:54;98791.72;;;6.22;75.05
68456;BME280;55437;55.046;38.838;2023-03-25T03:51:43;98796.50;;;6.32;74.94
68456;BME280;55437;55.046;38.838;2023-03-25T03:54:21;98783.44;;;6.41;74.80
68456;BME280;55437;55.046;38.838;2023-03-25T03:56:59;98779.88;;;6.47;74.67
68456;BME280;55437;55.046;38.838;2023-03-25T04:02:16;98780.72;;;6.47;74.19
68456;BME280;55437;55.046;38.838;2023-03-25T04:04:49;98780.50;;;6.54;74.45
68456;BME280;55437;55.046;38.838;2023-03-25T04:07:24;98776.66;;;6.67;74.21
68456;BME280;55437;55.046;38.838;2023-03-25T04:10:10;98776.38;;;6.76;73.99
68456;BME280;55437;55.046;38.838;2023-03-25T04:12:51;98763.34;;;6.83;73.91
68456;BME280;55437;55.046;38.838;2023-03-25T04:15:47;98770.53;;;6.97;73.45
68456;BME280;55437;55.046;38.838;2023-03-25T04:18:14;98766.72;;;7.09;73.28
68456;BME280;55437;55.046;38.838;2023-03-25T04:20:40;98759.03;;;7.10;73.13
68456;BME280;55437;55.046;38.838;2023-03-25T04:23:10;98757.97;;;7.16;72.93
68456;BME280;55437;55.046;38.838;2023-03-25T04:25:42;98750.34;;;7.14;72.76
68456;BME280;55437;55.046;38.838;2023-03-25T04:28:15;98742.63;;;7.16;72.93
68456;BME280;55437;55.046;38.838;2023-03-25T04:30:42;98736.69;;;7.15;72.62
68456;BME280;55437;55.046;38.838;2023-03-25T04:33:13;98732.28;;;7.20;72.85
68456;BME280;55437;55.046;38.838;2023-03-25T04:35:40;98738.03;;;7.26;72.58
68456;BME280;55437;55.046;38.838;2023-03-25T04:38:07;98724.53;;;7.23;72.63
68456;BME280;55437;55.046;38.838;2023-03-25T04:40:36;98720.50;;;7.16;72.48
68456;BME280;55437;55.046;38.838;2023-03-25T04:43:05;98712.78;;;7.18;72.89
68456;BME280;55437;55.046;38.838;2023-03-25T04:45:31;98705.81;;;7.23;72.58
68456;BME280;55437;55.046;38.838;2023-03-25T04:48:00;98699.75;;;7.26;72.31
68456;BME280;55437;55.046;38.838;2023-03-25T04:50:31;98701.19;;;7.33;72.25
68456;BME280;55437;55.046;38.838;2023-03-25T04:52:57;98693.19;;;7.42;71.88
68456;BME280;55437;55.046;38.838;2023-03-25T04:55:25;98695.16;;;7.57;71.62
68456;BME280;55437;55.046;38.838;2023-03-25T04:57:52;98689.59;;;7.69;71.29
68456;BME280;55437;55.046;38.838;2023-03-25T05:00:21;98683.41;;;7.75;71.40
68456;BME280;55437;55.046;38.838;2023-03-25T05:02:50;98675.44;;;7.82;70.82
68456;BME280;55437;55.046;38.838;2023-03-25T05:05:23;98681.47;;;8.02;70.38
68456;BME280;55437;55.046;38.838;2023-03-25T05:07:54;98682.47;;;8.19;70.27
68456;BME280;55437;55.046;38.838;2023-03-25T05:10:25;98678.72;;;8.48;69.81
68456;BME280;55437;55.046;38.838;2023-03-25T05:13:16;98673.53;;;8.70;69.06
68456;BME280;55437;55.046;38.838;2023-03-25T05:15:42;98663.41;;;8.87;68.71
68456;BME280;55437;55.046;38.838;2023-03-25T05:18:10;98660.72;;;9.09;68.22
68456;BME280;55437;55.046;38.838;2023-03-25T05:20:37;98653.91;;;9.28;67.81
68456;BME280;55437;55.046;38.838;2023-03-25T05:23:09;98643.22;;;9.37;67.34
68456;BME280;55437;55.046;38.838;2023-03-25T05:25:38;98649.31;;;9.35;67.13
68456;BME280;55437;55.046;38.838;2023-03-25T05:28:04;98637.63;;;9.29;67.27
68456;BME280;55437;55.046;38.838;2023-03-25T05:30:37;98642.66;;;9.31;67.04
68456;BME280;55437;55.046;38.838;2023-03-25T05:33:05;98644.19;;;9.35;67.13
68456;BME280;55437;55.046;38.838;2023-03-25T05:35:31;98655.72;;;9.44;66.94
68456;BME280;55437;55.046;38.838;2023-03-25T05:37:57;98651.16;;;9.50;66.91
68456;BME280;55437;55.046;38.838;2023-03-25T05:40:48;98647.34;;;9.59;66.36
68456;BME280;55437;55.046;38.838;2023-03-25T05:43:17;98644.63;;;9.62;66.16
68456;BME280;55437;55.046;38.838;2023-03-25T05:45:50;98638.09;;;9.73;66.16
68456;BME280;55437;55.046;38.838;2023-03-25T05:48:16;98631.94;;;9.95;65.60
68456;BME280;55437;55.046;38.838;2023-03-25T05:50:42;98638.41;;;10.54;64.71
68456;BME280;55437;55.046;38.838;2023-03-25T05:53:13;98643.19;;;11.41;62.70
68456;BME280;55437;55.046;38.838;2023-03-25T05:55:40;98654.78;;;11.64;62.18
68456;BME280;55437;55.046;38.838;2023-03-25T05:58:06;98652.50;;;11.75;61.65
68456;BME280;55437;55.046;38.838;2023-03-25T06:00:31;98643.75;;;11.62;61.44
68456;BME280;55437;55.046;38.838;2023-03-25T06:02:58;98647.16;;;11.63;61.40
68456;BME280;55437;55.046;38.838;2023-03-25T06:05:25;98647.94;;;11.80;60.71
68456;BME280;55437;55.046;38.838;2023-03-25T06:07:56;98639.69;;;11.74;60.43
68456;BME280;55437;55.046;38.838;2023-03-25T06:10:22;98637.06;;;11.75;60.47
68456;BME280;55437;55.046;38.838;2023-03-25T06:12:50;98632.03;;;12.04;60.11
68456;BME280;55437;55.046;38.838;2023-03-25T06:15:19;98627.13;;;11.99;59.77
68456;BME280;55437;55.046;38.838;2023-03-25T06:18:25;98631.03;;;12.06;59.54
68456;BME280;55437;55.046;38.838;2023-03-25T06:20:51;98626.25;;;12.87;58.26
68456;BME280;55437;55.046;38.838;2023-03-25T06:23:23;98623.66;;;13.56;57.09
68456;BME280;55437;55.046;38.838;2023-03-25T06:25:50;98620.66;;;14.41;55.39
68456;BME280;55437;55.046;38.838;2023-03-25T06:28:17;98617.41;;;15.14;53.82
68456;BME280;55437;55.046;38.838;2023-03-25T06:30:45;98613.00;;;15.64;52.87
68456;BME280;55437;55.046;38.838;2023-03-25T06:33:12;98609.44;;;15.77;51.90
68456;BME280;55437;55.046;38.838;2023-03-25T06:35:42;98607.88;;;16.10;51.37
68456;BME280;55437;55.046;38.838;2023-03-25T06:38:09;98607.22;;;15.60;51.93
68456;BME280;55437;55.046;38.838;2023-03-25T06:40:58;98591.22;;;15.19;52.50
68456;BME280;55437;55.046;38.838;2023-03-25T06:43:29;98606.25;;;15.37;51.92
68456;BME280;55437;55.046;38.838;2023-03-25T06:46:26;98620.47;;;15.68;51.32
68456;BME280;55437;55.046;38.838;2023-03-25T06:49:41;98611.59;;;16.30;50.21
68456;BME280;55437;55.046;38.838;2023-03-25T06:52:07;98600.69;;;17.04;49.03
68456;BME280;55437;55.046;38.838;2023-03-25T06:54:35;98601.44;;;17.49;48.06
68456;BME280;55437;55.046;38.838;2023-03-25T06:57:00;98608.38;;;17.60;47.73
68456;BME280;55437;55.046;38.838;2023-03-25T06:59:26;98602.84;;;17.53;47.44
68456;BME280;55437;55.046;38.838;2023-03-25T07:01:52;98603.72;;;17.32;47.66
68456;BME280;55437;55.046;38.838;2023-03-25T07:04:18;98604.34;;;17.67;46.89
68456;BME280;55437;55.046;38.838;2023-03-25T07:06:43;98605.94;;;18.32;46.27
68456;BME280;55437;55.046;38.838;2023-03-25T07:09:09;98592.25;;;18.81;45.07
68456;BME280;55437;55.046;38.838;2023-03-25T07:11:35;98598.22;;;18.72;44.90
68456;BME280;55437;55.046;38.838;2023-03-25T07:14:01;98588.84;;;18.81;44.80
68456;BME280;55437;55.046;38.838;2023-03-25T07:16:57;98575.25;;;18.77;44.93
68456;BME280;55437;55.046;38.838;2023-03-25T07:19:23;98572.25;;;18.51;45.22
68456;BME280;55437;55.046;38.838;2023-03-25T07:21:50;98559.81;;;18.55;44.96
68456;BME280;55437;55.046;38.838;2023-03-25T07:24:15;98576.06;;;18.68;44.83
68456;BME280;55437;55.046;38.838;2023-03-25T07:26:42;98574.28;;;18.68;44.90
68456;BME280;55437;55.046;38.838;2023-03-25T07:29:10;98571.75;;;18.57;45.03
68456;BME280;55437;55.046;38.838;2023-03-25T07:31:36;98570.03;;;18.67;45.20
68456;BME280;55437;55.046;38.838;2023-03-25T07:34:02;98572.56;;;18.88;44.82
68456;BME280;55437;55.046;38.838;2023-03-25T07:36:29;98568.44;;;18.86;44.80
68456;BME280;55437;55.046;38.838;2023-03-25T07:38:56;98568.09;;;18.18;45.84
68456;BME280;55437;55.046;38.838;2023-03-25T07:41:21;98556.44;;;17.71;46.49
68456;BME280;55437;55.046;38.838;2023-03-25T07:44:02;98553.91;;;17.06;47.95
68456;BME280;55437;55.046;38.838;2023-03-25T07:46:53;98554.19;;;16.69;48.53
68456;BME280;55437;55.046;38.838;2023-03-25T07:49:19;98546.03;;;16.29;49.70
68456;BME280;55437;55.046;38.838;2023-03-25T07:51:46;98545.94;;;15.96;50.17
68456;BME280;55437;55.046;38.838;2023-03-25T07:54:12;98542.41;;;15.85;50.59
68456;BME280;55437;55.046;38.838;2023-03-25T07:56:38;98545.13;;;15.60;51.48
68456;BME280;55437;55.046;38.838;2023-03-25T07:59:04;98545.41;;;15.44;51.62
68456;BME280;55437;55.046;38.838;2023-03-25T08:01:30;98536.25;;;15.28;51.97
68456;BME280;55437;55.046;38.838;2023-03-25T08:03:56;98537.81;;;15.06;52.61
68456;BME280;55437;55.046;38.838;2023-03-25T08:06:22;98535.50;;;14.78;53.28
68456;BME280;55437;55.046;38.838;2023-03-25T08:08:48;98541.13;;;14.59;53.66
68456;BME280;55437;55.046;38.838;2023-03-25T08:11:14;98539.03;;;14.26;54.61
68456;BME280;55437;55.046;38.838;2023-03-25T08:13:40;98536.69;;;14.23;54.71
68456;BME280;55437;55.046;38.838;2023-03-25T08:16:11;98538.63;;;14.20;55.12
68456;BME280;55437;55.046;38.838;2023-03-25T08:18:38;98543.38;;;14.13;55.28
68456;BME280;55437;55.046;38.838;2023-03-25T08:21:04;98535.84;;;14.10;55.64
68456;BME280;55437;55.046;38.838;2023-03-25T08:23:33;98538.22;;;14.00;55.93
68456;BME280;55437;55.046;38.838;2023-03-25T08:26:01;98541.22;;;14.07;55.74
68456;BME280;55437;55.046;38.838;2023-03-25T08:28:31;98537.88;;;13.92;56.13
68456;BME280;55437;55.046;38.838;2023-03-25T08:30:57;98539.91;;;13.62;56.91
68456;BME280;55437;55.046;38.838;2023-03-25T08:33:27;98550.88;;;13.39;57.50
68456;BME280;55437;55.046;38.838;2023-03-25T08:36:00;98547.44;;;13.25;57.98
68456;BME280;55437;55.046;38.838;2023-03-25T08:38:28;98545.19;;;13.33;57.84
68456;BME280;55437;55.046;38.838;2023-03-25T08:40:57;98536.28;;;13.25;58.43
68456;BME280;55437;55.046;38.838;2023-03-25T08:43:24;98541.50;;;13.38;58.49
68456;BME280;55437;55.046;38.838;2023-03-25T08:45:50;98541.50;;;13.38;58.71
68456;BME280;55437;55.046;38.838;2023-03-25T08:48:16;98553.53;;;13.64;58.05
68456;BME280;55437;55.046;38.838;2023-03-25T08:50:43;98550.00;;;13.65;58.08
68456;BME280;55437;55.046;38.838;2023-03-25T08:53:08;98545.69;;;13.65;58.06
68456;BME280;55437;55.046;38.838;2023-03-25T08:55:34;98547.91;;;13.84;57.80
68456;BME280;55437;55.046;38.838;2023-03-25T08:58:03;98549.56;;;13.85;57.79
68456;BME280;55437;55.046;38.838;2023-03-25T09:00:57;98542.97;;;14.19;57.06
68456;BME280;55437;55.046;38.838;2023-03-25T09:03:24;98533.13;;;14.37;56.70
68456;BME280;55437;55.046;38.838;2023-03-25T09:05:52;98532.53;;;14.33;56.71
68456;BME280;55437;55.046;38.838;2023-03-25T09:08:21;98536.78;;;14.34;56.73
68456;BME280;55437;55.046;38.838;2023-03-25T09:10:47;98536.91;;;14.46;56.54
68456;BME280;55437;55.046;38.838;2023-03-25T09:13:13;98545.25;;;14.49;56.38
68456;BME280;55437;55.046;38.838;2023-03-25T09:15:39;98542.28;;;14.43;56.61
68456;BME280;55437;55.046;38.838;2023-03-25T09:18:05;98542.53;;;14.38;56.54
68456;BME280;55437;55.046;38.838;2023-03-25T09:20:32;98548.63;;;14.37;56.70
68456;BME280;55437;55.046;38.838;2023-03-25T09:22:58;98545.69;;;14.43;56.48
68456;BME280;55437;55.046;38.838;2023-03-25T09:25:23;98545.34;;;14.35;56.76
68456;BME280;55437;55.046;38.838;2023-03-25T09:27:50;98553.00;;;14.24;57.08
68456;BME280;55437;55.046;38.838;2023-03-25T09:30:16;98548.53;;;14.26;56.99
68456;BME280;55437;55.046;38.838;2023-03-25T09:32:42;98549.88;;;14.31;57.02
68456;BME280;55437;55.046;38.838;2023-03-25T09:35:09;98555.88;;;14.19;57.30
68456;BME280;55437;55.046;38.838;2023-03-25T09:37:35;98558.97;;;14.12;57.55
68456;BME280;55437;55.046;38.838;2023-03-25T09:40:27;98567.66;;;14.23;57.74
68456;BME280;55437;55.046;38.838;2023-03-25T09:43:03;98564.59;;;14.44;57.29
68456;BME280;55437;55.046;38.838;2023-03-25T09:45:42;98563.22;;;14.51;57.04
68456;BME280;55437;55.046;38.838;2023-03-25T09:50:48;98567.16;;;14.69;56.95
68456;BME280;55437;55.046;38.838;2023-03-25T09:55:52;98558.97;;;14.75;56.90
68456;BME280;55437;55.046;38.838;2023-03-25T10:00:54;98558.97;;;14.62;57.31
68456;BME280;55437;55.046;38.838;2023-03-25T10:04:08;98560.25;;;14.57;57.40
68456;BME280;55437;55.046;38.838;2023-03-25T10:06:22;98563.75;;;14.43;57.79
68456;BME280;55437;55.046;38.838;2023-03-25T10:14:32;98557.97;;;14.39;57.91
68456;BME280;55437;55.046;38.838;2023-03-25T10:20:24;98557.88;;;14.41;58.50
68456;BME280;55437;55.046;38.838;2023-03-25T10:23:21;98552.19;;;14.36;58.92
68456;BME280;55437;55.046;38.838;2023-03-25T10:25:55;98548.97;;;14.32;59.60
68456;BME280;55437;55.046;38.838;2023-03-25T10:28:28;98561.69;;;14.23;60.70
68456;BME280;55437;55.046;38.838;2023-03-25T10:30:58;98552.47;;;14.31;60.66
68456;BME280;55437;55.046;38.838;2023-03-25T10:33:40;98558.88;;;14.38;61.16
68456;BME280;55437;55.046;38.838;2023-03-25T10:36:53;98563.03;;;14.41;61.34
68456;BME280;55437;55.046;38.838;2023-03-25T10:39:25;98563.97;;;14.40;61.48
68456;BME280;55437;55.046;38.838;2023-03-25T10:42:03;98569.13;;;14.40;61.26
68456;BME280;55437;55.046;38.838;2023-03-25T10:44:36;98564.56;;;14.31;61.39
68456;BME280;55437;55.046;38.838;2023-03-25T10:49:29;98563.31;;;14.24;61.45
68456;BME280;55437;55.046;38.838;2023-03-25T10:51:57;98557.25;;;14.25;61.46
68456;BME280;55437;55.046;38.838;2023-03-25T10:54:29;98560.41;;;14.16;61.55
68456;BME280;55437;55.046;38.838;2023-03-25T10:57:08;98559.50;;;14.29;61.34
68456;BME280;55437;55.046;38.838;2023-03-25T11:02:19;98556.09;;;14.54;60.86
68456;BME280;55437;55.046;38.838;2023-03-25T11:04:51;98550.19;;;14.65;60.73
68456;BME280;55437;55.046;38.838;2023-03-25T11:07:31;98548.84;;;14.72;60.48
68456;BME280;55437;55.046;38.838;2023-03-25T11:10:20;98539.72;;;14.92;60.05
68456;BME280;55437;55.046;38.838;2023-03-25T11:12:46;98545.09;;;15.12;59.64
68456;BME280;55437;55.046;38.838;2023-03-25T11:15:23;98534.25;;;15.20;59.35
68456;BME280;55437;55.046;38.838;2023-03-25T11:20:29;98550.69;;;15.43;59.01
68456;BME280;55437;55.046;38.838;2023-03-25T11:23:03;98544.75;;;15.30;59.29
68456;BME280;55437;55.046;38.838;2023-03-25T11:25:35;98549.97;;;15.17;59.36
68456;BME280;55437;55.046;38.838;2023-03-25T11:28:08;98551.16;;;15.00;59.52
68456;BME280;55437;55.046;38.838;2023-03-25T11:30:36;98559.69;;;14.77;60.06
68456;BME280;55437;55.046;38.838;2023-03-25T11:33:11;98565.22;;;14.60;60.34
68456;BME280;55437;55.046;38.838;2023-03-25T11:35:40;98566.34;;;14.43;60.60
68456;BME280;55437;55.046;38.838;2023-03-25T11:38:22;98574.69;;;14.34;60.86
68456;BME280;55437;55.046;38.838;2023-03-25T11:40:55;98580.88;;;14.31;61.18
68456;BME280;55437;55.046;38.838;2023-03-25T11:43:23;98571.06;;;14.36;61.10
68456;BME280;55437;55.046;38.838;2023-03-25T11:45:50;98576.13;;;14.38;61.36
68456;BME280;55437;55.046;38.838;2023-03-25T11:48:19;98575.91;;;14.28;61.64
68456;BME280;55437;55.046;38.838;2023-03-25T11:50:47;98579.75;;;14.23;61.90
68456;BME280;55437;55.046;38.838;2023-03-25T11:53:18;98579.81;;;14.09;62.45
68456;BME280;55437;55.046;38.838;2023-03-25T11:55:58;98586.13;;;14.04;62.99
68456;BME280;55437;55.046;38.838;2023-03-25T11:58:28;98588.88;;;14.01;63.27
68456;BME280;55437;55.046;38.838;2023-03-25T12:01:25;98589.13;;;13.98;63.47
68456;BME280;55437;55.046;38.838;2023-03-25T12:04:32;98589.59;;;13.91;63.96
68456;BME280;55437;55.046;38.838;2023-03-25T12:09:26;98573.69;;;13.84;64.57
68456;BME280;55437;55.046;38.838;2023-03-25T12:14:55;98575.44;;;13.84;65.06
68456;BME280;55437;55.046;38.838;2023-03-25T12:17:50;98575.50;;;13.69;65.66
68456;BME280;55437;55.046;38.838;2023-03-25T12:23:03;98579.06;;;13.54;66.30
68456;BME280;55437;55.046;38.838;2023-03-25T12:43:03;98584.19;;;13.15;68.04
68456;BME280;55437;55.046;38.838;2023-03-25T12:54:04;98589.16;;;12.89;69.31
68456;BME280;55437;55.046;38.838;2023-03-25T12:56:45;98584.94;;;12.88;69.36
68456;BME280;55437;55.046;38.838;2023-03-25T13:02:06;98587.22;;;12.93;69.47
68456;BME280;55437;55.046;38.838;2023-03-25T13:05:16;98571.88;;;12.91;69.83
68456;BME280;55437;55.046;38.838;2023-03-25T13:07:49;98573.88;;;12.86;69.94
68456;BME280;55437;55.046;38.838;2023-03-25T13:10:22;98577.28;;;12.87;70.21
68456;BME280;55437;55.046;38.838;2023-03-25T13:13:18;98572.22;;;12.85;70.57
68456;BME280;55437;55.046;38.838;2023-03-25T13:15:59;98577.28;;;12.87;70.76
68456;BME280;55437;55.046;38.838;2023-03-25T13:18:34;98567.09;;;12.85;70.98
68456;BME280;55437;55.046;38.838;2023-03-25T13:21:18;98568.75;;;12.86;70.86
68456;BME280;55437;55.046;38.838;2023-03-25T13:23:51;98566.16;;;12.86;70.96
68456;BME280;55437;55.046;38.838;2023-03-25T13:26:22;98565.59;;;12.81;71.44
68456;BME280;55437;55.046;38.838;2023-03-25T13:29:02;98565.91;;;12.77;71.21
68456;BME280;55437;55.046;38.838;2023-03-25T13:31:35;98565.06;;;12.76;71.40
68456;BME280;55437;55.046;38.838;2023-03-25T13:34:14;98563.78;;;12.69;71.29
68456;BME280;55437;55.046;38.838;2023-03-25T13:37:30;98554.88;;;12.60;71.84
68456;BME280;55437;55.046;38.838;2023-03-25T13:45:16;98557.91;;;12.53;71.75
68456;BME280;55437;55.046;38.838;2023-03-25T13:47:58;98546.13;;;12.49;71.86
68456;BME280;55437;55.046;38.838;2023-03-25T13:50:30;98543.28;;;12.39;72.30
68456;BME280;55437;55.046;38.838;2023-03-25T13:53:15;98535.84;;;12.35;72.18
68456;BME280;55437;55.046;38.838;2023-03-25T13:55:54;98547.25;;;12.31;72.60
68456;BME280;55437;55.046;38.838;2023-03-25T13:58:48;98553.50;;;12.26;72.60
68456;BME280;55437;55.046;38.838;2023-03-25T14:04:43;98559.63;;;12.10;73.29
68456;BME280;55437;55.046;38.838;2023-03-25T14:12:45;98576.81;;;12.09;73.54
68456;BME280;55437;55.046;38.838;2023-03-25T14:15:28;98577.72;;;12.08;73.77
68456;BME280;55437;55.046;38.838;2023-03-25T14:18:01;98577.84;;;12.07;73.33
68456;BME280;55437;55.046;38.838;2023-03-25T14:20:35;98571.94;;;12.05;73.23
68456;BME280;55437;55.046;38.838;2023-03-25T14:23:05;98579.66;;;12.05;73.77
68456;BME280;55437;55.046;38.838;2023-03-25T14:25:39;98578.84;;;12.04;73.34
68456;BME280;55437;55.046;38.838;2023-03-25T14:28:14;98580.56;;;12.04;73.54
68456;BME280;55437;55.046;38.838;2023-03-25T14:30:41;98575.44;;;12.04;73.79
68456;BME280;55437;55.046;38.838;2023-03-25T14:33:09;98579.56;;;12.06;73.90
68456;BME280;55437;55.046;38.838;2023-03-25T14:43:27;98575.50;;;12.02;74.22
68456;BME280;55437;55.046;38.838;2023-03-25T14:51:43;98581.75;;;11.98;73.99
68456;BME280;55437;55.046;38.838;2023-03-25T14:54:19;98586.25;;;11.95;74.01
68456;BME280;55437;55.046;38.838;2023-03-25T14:59:35;98592.41;;;11.92;74.10
68456;BME280;55437;55.046;38.838;2023-03-25T15:02:32;98600.19;;;11.90;74.62
68456;BME280;55437;55.046;38.838;2023-03-25T15:05:51;98598.44;;;11.91;74.28
68456;BME280;55437;55.046;38.838;2023-03-25T15:08:35;98600.13;;;11.92;74.20
68456;BME280;55437;55.046;38.838;2023-03-25T15:13:48;98603.31;;;11.96;74.64
68456;BME280;55437;55.046;38.838;2023-03-25T15:19:16;98602.53;;;11.95;74.28
68456;BME280;55437;55.046;38.838;2023-03-25T15:24:38;98602.41;;;11.97;74.34
68456;BME280;55437;55.046;38.838;2023-03-25T15:44:00;98611.19;;;11.78;75.07
68456;BME280;55437;55.046;38.838;2023-03-25T15:49:40;98614.41;;;11.66;75.23
68456;BME280;55437;55.046;38.838;2023-03-25T15:55:07;98616.38;;;11.61;75.29
68456;BME280;55437;55.046;38.838;2023-03-25T15:58:02;98621.38;;;11.64;75.17